createdAt,value
2023-03-02T00:00:37.108Z,0
2023-03-02T00:01:40.464Z,0
2023-03-02T00:02:43.730Z,0
2023-03-02T00:03:46.821Z,0
2023-03-02T00:04:50.122Z,0
2023-03-02T00:05:53.554Z,0
2023-03-02T00:06:56.916Z,0
2023-03-02T00:07:59.173Z,0
2023-03-02T00:09:02.442Z,0
2023-03-02T00:10:05.805Z,0
2023-03-02T00:11:09.036Z,0
2023-03-02T00:12:12.301Z,0
2023-03-02T00:13:15.677Z,0
2023-03-02T00:14:18.846Z,0
2023-03-02T00:15:21.118Z,0
2023-03-02T00:16:23.486Z,0
2023-03-02T00:17:25.702Z,0
2023-03-02T00:18:28.214Z,0
2023-03-02T00:19:31.316Z,0
2023-03-02T00:20:34.754Z,0
2023-03-02T00:21:38.052Z,0
2023-03-02T00:22:41.270Z,0
2023-03-02T00:23:44.624Z,0
2023-03-02T00:24:47.904Z,0
2023-03-02T00:25:51.196Z,0
2023-03-02T00:26:54.436Z,0
2023-03-02T00:27:57.704Z,0
2023-03-02T00:29:01.777Z,0
2023-03-02T00:30:05.044Z,0
2023-03-02T00:31:08.209Z,0
2023-03-02T00:32:10.697Z,0
2023-03-02T00:33:13.967Z,0
2023-03-02T00:34:17.199Z,0
2023-03-02T00:35:20.565Z,0
2023-03-02T00:36:23.678Z,0
2023-03-02T00:37:27.129Z,0
2023-03-02T00:38:30.442Z,0
2023-03-02T00:39:32.715Z,0
2023-03-02T00:40:35.098Z,0
2023-03-02T00:41:37.289Z,-0.01
2023-03-02T00:42:39.573Z,0
2023-03-02T00:43:42.993Z,0
2023-03-02T00:44:46.309Z,0
2023-03-02T00:45:49.579Z,0
2023-03-02T00:46:52.814Z,0
2023-03-02T00:47:56.165Z,0
2023-03-02T00:48:59.406Z,0
2023-03-02T00:50:02.723Z,0
2023-03-02T00:51:06.050Z,0
2023-03-02T00:52:09.248Z,0
2023-03-02T00:53:12.574Z,0
2023-03-02T00:54:15.839Z,0
2023-03-02T00:55:19.190Z,0
2023-03-02T00:56:21.402Z,0
2023-03-02T00:57:24.820Z,0
2023-03-02T00:58:28.036Z,0
2023-03-02T00:59:31.363Z,0
2023-03-02T01:00:34.621Z,0
2023-03-02T01:01:37.945Z,0
2023-03-02T01:02:41.287Z,0
2023-03-02T01:03:43.403Z,0
2023-03-02T01:04:45.939Z,0
2023-03-02T01:05:48.988Z,0
2023-03-02T01:06:51.294Z,0
2023-03-02T01:07:53.738Z,0
2023-03-02T01:08:57.088Z,0
2023-03-02T01:10:00.369Z,0
2023-03-02T01:11:03.615Z,0
2023-03-02T01:12:06.924Z,0
2023-03-02T01:13:10.056Z,0
2023-03-02T01:14:13.348Z,0
2023-03-02T01:15:16.730Z,0
2023-03-02T01:16:20.104Z,0
2023-03-02T01:17:23.413Z,0
2023-03-02T01:18:26.620Z,0
2023-03-02T01:19:29.929Z,0
2023-03-02T01:20:33.174Z,0
2023-03-02T01:21:35.627Z,0
2023-03-02T01:22:38.878Z,0
2023-03-02T01:23:42.284Z,0
2023-03-02T01:24:45.456Z,0
2023-03-02T01:25:48.731Z,0
2023-03-02T01:26:52.005Z,0
2023-03-02T01:27:55.195Z,0
2023-03-02T01:28:57.682Z,0
2023-03-02T01:29:59.922Z,0
2023-03-02T01:31:02.247Z,0
2023-03-02T01:32:04.419Z,0
2023-03-02T01:33:07.919Z,0
2023-03-02T01:34:11.214Z,0
2023-03-02T01:35:14.337Z,0
2023-03-02T01:36:17.709Z,0
2023-03-02T01:37:21.162Z,0
2023-03-02T01:38:24.367Z,0
2023-03-02T01:39:27.533Z,0
2023-03-02T01:40:30.957Z,0
2023-03-02T01:42:37.520Z,0
2023-03-02T01:43:40.780Z,0
2023-03-02T01:44:44.104Z,0
2023-03-02T01:45:46.385Z,0
2023-03-02T01:46:49.610Z,0
2023-03-02T01:47:52.955Z,0
2023-03-02T01:48:56.283Z,0
2023-03-02T01:49:59.564Z,0
2023-03-02T01:51:02.747Z,0
2023-03-02T01:52:05.957Z,0
2023-03-02T01:53:09.422Z,0
2023-03-02T01:54:11.787Z,0
2023-03-02T01:55:14.065Z,0
2023-03-02T01:56:16.377Z,0
2023-03-02T01:57:18.682Z,0
2023-03-02T01:58:21.877Z,0
2023-03-02T01:59:25.157Z,0
2023-03-02T02:00:28.500Z,0
2023-03-02T02:01:31.888Z,0
2023-03-02T02:02:35.125Z,0
2023-03-02T02:03:38.398Z,0
2023-03-02T02:04:41.546Z,0
2023-03-02T02:05:45.054Z,0
2023-03-02T02:06:48.291Z,0
2023-03-02T02:07:51.584Z,0
2023-03-02T02:08:54.769Z,0
2023-03-02T02:09:58.123Z,0
2023-03-02T02:11:00.413Z,0
2023-03-02T02:12:03.649Z,0
2023-03-02T02:13:07.020Z,0
2023-03-02T02:14:10.388Z,0
2023-03-02T02:15:13.533Z,0
2023-03-02T02:16:16.948Z,0
2023-03-02T02:17:20.179Z,0
2023-03-02T02:18:22.521Z,0
2023-03-02T02:19:24.811Z,0
2023-03-02T02:20:27.197Z,0
2023-03-02T02:21:29.421Z,0
2023-03-02T02:22:32.820Z,0
2023-03-02T02:23:35.892Z,0
2023-03-02T02:24:39.308Z,0
2023-03-02T02:25:42.646Z,0
2023-03-02T02:26:45.959Z,0
2023-03-02T02:27:49.282Z,0
2023-03-02T02:28:52.355Z,0
2023-03-02T02:29:55.812Z,0
2023-03-02T02:30:59.557Z,0
2023-03-02T02:32:02.915Z,0
2023-03-02T02:33:06.154Z,0
2023-03-02T02:34:09.413Z,0
2023-03-02T02:35:11.701Z,0
2023-03-02T02:36:14.870Z,0
2023-03-02T02:37:18.347Z,0
2023-03-02T02:38:21.631Z,0
2023-03-02T02:39:24.786Z,0
2023-03-02T02:40:28.179Z,0
2023-03-02T02:41:31.514Z,0
2023-03-02T02:42:33.807Z,0
2023-03-02T02:43:36.135Z,0
2023-03-02T02:44:39.271Z,0
2023-03-02T02:45:42.692Z,0
2023-03-02T02:46:45.041Z,0
2023-03-02T02:47:47.276Z,0
2023-03-02T02:48:50.478Z,0
2023-03-02T02:49:53.744Z,0
2023-03-02T02:50:57.190Z,0
2023-03-02T02:52:00.384Z,0
2023-03-02T02:53:02.657Z,0
2023-03-02T02:54:05.951Z,0
2023-03-02T02:55:09.316Z,0
2023-03-02T02:56:12.544Z,0
2023-03-02T02:57:15.828Z,0
2023-03-02T02:58:19.107Z,0
2023-03-02T02:59:22.414Z,0
2023-03-02T03:00:25.694Z,0
2023-03-02T03:01:28.997Z,0
2023-03-02T03:02:32.289Z,0
2023-03-02T03:03:35.570Z,0
2023-03-02T03:04:38.868Z,0
2023-03-02T03:05:42.165Z,0
2023-03-02T03:06:44.472Z,0
2023-03-02T03:07:47.773Z,0
2023-03-02T03:08:50.067Z,0
2023-03-02T03:09:52.380Z,0
2023-03-02T03:10:55.665Z,0
2023-03-02T03:11:59.741Z,0
2023-03-02T03:13:02.966Z,0
2023-03-02T03:14:06.245Z,0
2023-03-02T03:15:09.538Z,0
2023-03-02T03:16:12.855Z,0
2023-03-02T03:17:16.126Z,0
2023-03-02T03:18:19.573Z,0
2023-03-02T03:19:22.717Z,0
2023-03-02T03:20:25.991Z,0
2023-03-02T03:21:29.283Z,0
2023-03-02T03:22:32.593Z,0
2023-03-02T03:23:34.887Z,0
2023-03-02T03:24:38.184Z,0
2023-03-02T03:25:41.481Z,0
2023-03-02T03:26:44.779Z,0
2023-03-02T03:27:48.113Z,0
2023-03-02T03:28:51.363Z,0
2023-03-02T03:29:54.674Z,0
2023-03-02T03:30:56.959Z,0
2023-03-02T03:32:00.243Z,0
2023-03-02T03:33:02.768Z,0
2023-03-02T03:34:05.074Z,0
2023-03-02T03:35:08.378Z,0
2023-03-02T03:36:11.674Z,0
2023-03-02T03:37:14.950Z,0
2023-03-02T03:38:18.256Z,0
2023-03-02T03:39:21.551Z,0
2023-03-02T03:40:24.909Z,0
2023-03-02T03:41:28.129Z,0
2023-03-02T03:42:31.427Z,0
2023-03-02T03:43:34.713Z,0
2023-03-02T03:44:38.004Z,0
2023-03-02T03:45:41.296Z,0
2023-03-02T03:46:44.597Z,0
2023-03-02T03:47:46.893Z,0
2023-03-02T03:48:50.190Z,0
2023-03-02T03:49:53.564Z,0
2023-03-02T03:50:56.834Z,0
2023-03-02T03:52:00.084Z,0
2023-03-02T03:53:03.383Z,0
2023-03-02T03:54:06.634Z,0
2023-03-02T03:55:09.011Z,0
2023-03-02T03:56:11.275Z,0
2023-03-02T03:57:13.579Z,0
2023-03-02T03:58:15.929Z,0
2023-03-02T03:59:19.196Z,0
2023-03-02T04:00:22.456Z,0
2023-03-02T04:01:25.782Z,0
2023-03-02T04:02:29.058Z,0
2023-03-02T04:03:32.344Z,0
2023-03-02T04:04:35.645Z,0
2023-03-02T04:05:38.951Z,0
2023-03-02T04:06:42.308Z,0
2023-03-02T04:07:45.517Z,0
2023-03-02T04:08:48.810Z,0
2023-03-02T04:09:52.133Z,0
2023-03-02T04:10:55.415Z,0
2023-03-02T04:11:57.690Z,0
2023-03-02T04:13:01.005Z,0
2023-03-02T04:14:04.288Z,0
2023-03-02T04:15:07.573Z,0
2023-03-02T04:16:10.945Z,0
2023-03-02T04:17:14.154Z,0
2023-03-02T04:18:17.453Z,0
2023-03-02T04:19:19.757Z,0
2023-03-02T04:20:23.171Z,0
2023-03-02T04:21:25.479Z,0
2023-03-02T04:22:27.801Z,0
2023-03-02T04:23:31.085Z,0
2023-03-02T04:24:34.369Z,0
2023-03-02T04:25:37.767Z,0
2023-03-02T04:26:40.984Z,0
2023-03-02T04:27:44.251Z,0
2023-03-02T04:28:47.552Z,0
2023-03-02T04:29:50.852Z,0
2023-03-02T04:30:54.155Z,0
2023-03-02T04:31:57.433Z,0
2023-03-02T04:33:00.719Z,0
2023-03-02T04:34:04.079Z,0
2023-03-02T04:35:07.312Z,0
2023-03-02T04:36:09.624Z,0
2023-03-02T04:37:12.912Z,0
2023-03-02T04:38:16.192Z,0
2023-03-02T04:39:19.497Z,0
2023-03-02T04:40:22.795Z,0
2023-03-02T04:41:26.082Z,0
2023-03-02T04:42:29.376Z,0
2023-03-02T04:43:31.669Z,0
2023-03-02T04:44:33.997Z,0
2023-03-02T04:45:36.307Z,0
2023-03-02T04:46:38.602Z,0
2023-03-02T04:47:41.893Z,0
2023-03-02T04:48:45.182Z,0
2023-03-02T04:49:48.477Z,0
2023-03-02T04:50:51.858Z,-0.01
2023-03-02T04:51:55.083Z,0
2023-03-02T04:52:58.363Z,0
2023-03-02T04:54:01.969Z,0
2023-03-02T04:55:04.972Z,0
2023-03-02T04:56:08.247Z,0
2023-03-02T04:57:11.657Z,0
2023-03-02T04:58:14.824Z,0
2023-03-02T04:59:18.125Z,0
2023-03-02T05:00:20.425Z,0
2023-03-02T05:01:23.712Z,0
2023-03-02T05:02:27.000Z,0
2023-03-02T05:03:30.369Z,0
2023-03-02T05:04:33.597Z,0
2023-03-02T05:05:36.875Z,0
2023-03-02T05:06:40.174Z,0
2023-03-02T05:07:42.490Z,0
2023-03-02T05:08:44.792Z,0
2023-03-02T05:09:47.110Z,0
2023-03-02T05:10:49.402Z,0
2023-03-02T05:11:52.786Z,0
2023-03-02T05:12:56.000Z,0
2023-03-02T05:13:59.292Z,0
2023-03-02T05:15:02.567Z,0
2023-03-02T05:16:06.502Z,0
2023-03-02T05:17:09.793Z,0
2023-03-02T05:18:13.075Z,0
2023-03-02T05:19:16.377Z,0
2023-03-02T05:20:19.663Z,0
2023-03-02T05:21:22.947Z,0
2023-03-02T05:22:26.252Z,0
2023-03-02T05:23:29.543Z,0
2023-03-02T05:24:31.848Z,0
2023-03-02T05:25:35.129Z,0
2023-03-02T05:26:38.429Z,0
2023-03-02T05:27:41.719Z,0
2023-03-02T05:28:45.030Z,0
2023-03-02T05:29:48.315Z,0
2023-03-02T05:30:51.620Z,0
2023-03-02T05:31:53.920Z,0
2023-03-02T05:32:56.222Z,0
2023-03-02T05:33:58.537Z,0
2023-03-02T05:35:00.840Z,0
2023-03-02T05:36:04.143Z,0
2023-03-02T05:37:07.407Z,0
2023-03-02T05:38:10.764Z,0
2023-03-02T05:39:14.001Z,0
2023-03-02T05:40:17.310Z,0
2023-03-02T05:41:20.589Z,0
2023-03-02T05:42:23.888Z,0
2023-03-02T05:43:27.388Z,0
2023-03-02T05:44:30.488Z,0
2023-03-02T05:45:33.762Z,0
2023-03-02T05:46:37.055Z,0
2023-03-02T05:47:40.343Z,0
2023-03-02T05:48:42.650Z,0
2023-03-02T05:49:45.990Z,0
2023-03-02T05:50:49.238Z,0
2023-03-02T05:51:52.531Z,0
2023-03-02T05:52:55.806Z,0
2023-03-02T05:53:59.130Z,0
2023-03-02T05:55:02.436Z,0
2023-03-02T05:56:04.706Z,0
2023-03-02T05:57:07.026Z,0
2023-03-02T05:58:09.336Z,0
2023-03-02T05:59:11.637Z,0
2023-03-02T06:00:14.930Z,0
2023-03-02T06:01:18.218Z,0
2023-03-02T06:02:21.512Z,0
2023-03-02T06:03:24.795Z,0
2023-03-02T06:04:28.095Z,0
2023-03-02T06:05:31.387Z,0
2023-03-02T06:06:34.679Z,0
2023-03-02T06:07:37.966Z,-0.01
2023-03-02T06:08:41.256Z,0
2023-03-02T06:09:44.566Z,0
2023-03-02T06:10:47.833Z,0
2023-03-02T06:11:51.151Z,0
2023-03-02T06:12:53.463Z,0
2023-03-02T06:13:56.758Z,0
2023-03-02T06:15:00.051Z,0
2023-03-02T06:16:03.806Z,0
2023-03-02T06:17:07.098Z,0
2023-03-02T06:18:10.372Z,0
2023-03-02T06:19:13.668Z,0
2023-03-02T06:20:16.014Z,0
2023-03-02T06:21:18.306Z,0
2023-03-02T06:22:20.618Z,0
2023-03-02T06:23:22.926Z,0
2023-03-02T06:24:25.242Z,0
2023-03-02T06:25:28.528Z,0
2023-03-02T06:26:31.803Z,0
2023-03-02T06:27:35.110Z,0
2023-03-02T06:28:38.385Z,0
2023-03-02T06:29:41.681Z,0
2023-03-02T06:30:45.035Z,0
2023-03-02T06:31:48.268Z,0
2023-03-02T06:32:51.585Z,0
2023-03-02T06:33:54.866Z,0
2023-03-02T06:34:58.203Z,0
2023-03-02T06:36:01.424Z,0
2023-03-02T06:37:04.824Z,0
2023-03-02T06:38:07.132Z,0
2023-03-02T06:39:10.337Z,-0.01
2023-03-02T06:40:13.626Z,0
2023-03-02T06:41:16.913Z,0
2023-03-02T06:42:20.232Z,0
2023-03-02T06:43:23.523Z,0
2023-03-02T06:44:25.810Z,0
2023-03-02T06:45:28.135Z,0
2023-03-02T06:46:31.423Z,0
2023-03-02T06:47:33.727Z,0
2023-03-02T06:48:36.034Z,0
2023-03-02T06:49:39.320Z,0
2023-03-02T06:50:42.618Z,0
2023-03-02T06:51:45.913Z,0
2023-03-02T06:52:49.202Z,0
2023-03-02T06:53:52.503Z,0
2023-03-02T06:54:55.820Z,0
2023-03-02T06:55:59.101Z,0
2023-03-02T06:57:02.366Z,0
2023-03-02T06:58:05.658Z,0
2023-03-02T06:59:08.972Z,0
2023-03-02T07:00:12.244Z,0
2023-03-02T07:01:15.638Z,0
2023-03-02T07:02:17.845Z,1
2023-03-02T07:03:21.168Z,1
2023-03-02T07:04:24.418Z,1
2023-03-02T07:05:27.717Z,1
2023-03-02T07:06:31.009Z,1
2023-03-02T07:07:34.298Z,1
2023-03-02T07:08:37.599Z,1
2023-03-02T07:09:39.921Z,1
2023-03-02T07:10:42.216Z,1
2023-03-02T07:11:44.552Z,1
2023-03-02T07:12:46.848Z,1
2023-03-02T07:13:50.137Z,1
2023-03-02T07:14:53.430Z,1
2023-03-02T07:15:56.731Z,1
2023-03-02T07:16:59.989Z,1
2023-03-02T07:18:03.298Z,1
2023-03-02T07:19:07.211Z,1
2023-03-02T07:20:10.512Z,1
2023-03-02T07:21:13.890Z,1
2023-03-02T07:22:17.096Z,1
2023-03-02T07:23:20.373Z,1
2023-03-02T07:24:23.675Z,1
2023-03-02T07:25:26.994Z,1
2023-03-02T07:26:29.266Z,1
2023-03-02T07:27:32.564Z,1
2023-03-02T07:28:35.849Z,1
2023-03-02T07:29:39.163Z,0
2023-03-02T07:30:42.500Z,0
2023-03-02T07:31:45.742Z,0
2023-03-02T07:32:49.023Z,0
2023-03-02T07:33:51.491Z,0
2023-03-02T07:34:53.643Z,0
2023-03-02T07:35:55.976Z,1
2023-03-02T07:36:58.266Z,1
2023-03-02T07:38:01.558Z,1
2023-03-02T07:39:04.850Z,1
2023-03-02T07:40:08.133Z,1
2023-03-02T07:41:11.429Z,1
2023-03-02T07:42:14.738Z,1
2023-03-02T07:43:18.016Z,0
2023-03-02T07:44:21.308Z,-0.01
2023-03-02T07:45:24.594Z,0
2023-03-02T07:46:27.892Z,0
2023-03-02T07:47:31.177Z,0
2023-03-02T07:48:34.480Z,0
2023-03-02T07:49:37.789Z,0
2023-03-02T07:50:40.138Z,0
2023-03-02T07:51:43.378Z,0
2023-03-02T07:52:46.666Z,0
2023-03-02T07:53:49.956Z,0
2023-03-02T07:54:53.239Z,0
2023-03-02T07:55:56.600Z,0
2023-03-02T07:56:59.823Z,0
2023-03-02T07:58:02.181Z,0
2023-03-02T07:59:04.450Z,0
2023-03-02T08:00:07.774Z,0
2023-03-02T08:01:10.147Z,0
2023-03-02T08:02:12.458Z,0
2023-03-02T08:03:15.781Z,0
2023-03-02T08:04:18.998Z,0
2023-03-02T08:05:22.306Z,0
2023-03-02T08:06:25.532Z,0
2023-03-02T08:07:28.825Z,0
2023-03-02T08:08:32.183Z,0
2023-03-02T08:09:35.413Z,-0.01
2023-03-02T08:10:38.798Z,0
2023-03-02T08:11:41.989Z,0
2023-03-02T08:12:45.299Z,0
2023-03-02T08:13:48.581Z,0
2023-03-02T08:14:51.946Z,0
2023-03-02T08:15:54.194Z,0
2023-03-02T08:16:57.480Z,0
2023-03-02T08:18:00.799Z,0
2023-03-02T08:19:04.573Z,0
2023-03-02T08:20:07.897Z,0
2023-03-02T08:21:11.154Z,0
2023-03-02T08:22:14.490Z,0
2023-03-02T08:23:16.900Z,0
2023-03-02T08:24:19.069Z,1
2023-03-02T08:25:21.461Z,0
2023-03-02T08:26:23.685Z,0
2023-03-02T08:27:26.975Z,0
2023-03-02T08:28:30.298Z,0
2023-03-02T08:29:33.560Z,1
2023-03-02T08:30:36.855Z,0
2023-03-02T08:31:40.173Z,0
2023-03-02T08:32:43.445Z,1
2023-03-02T08:33:46.748Z,11
2023-03-02T08:34:50.020Z,11
2023-03-02T08:35:53.308Z,10
2023-03-02T08:36:56.614Z,10
2023-03-02T08:37:59.904Z,10
2023-03-02T08:39:03.210Z,10
2023-03-02T08:40:05.525Z,11
2023-03-02T08:41:08.781Z,11
2023-03-02T08:42:12.072Z,10
2023-03-02T08:43:15.376Z,10
2023-03-02T08:44:18.663Z,11
2023-03-02T08:45:21.956Z,10
2023-03-02T08:46:25.392Z,10
2023-03-02T08:47:27.559Z,11
2023-03-02T08:48:29.878Z,10
2023-03-02T08:49:33.160Z,10
2023-03-02T08:50:35.502Z,10
2023-03-02T08:51:37.864Z,10
2023-03-02T08:52:41.088Z,10
2023-03-02T08:53:44.413Z,10
2023-03-02T08:54:47.659Z,10
2023-03-02T08:55:51.012Z,10
2023-03-02T08:56:54.235Z,10
2023-03-02T08:57:57.527Z,10
2023-03-02T08:59:00.820Z,10
2023-03-02T09:00:04.828Z,10
2023-03-02T09:01:08.126Z,10
2023-03-02T09:02:11.471Z,10
2023-03-02T09:03:14.689Z,10
2023-03-02T09:04:17.993Z,10
2023-03-02T09:05:20.293Z,10
2023-03-02T09:06:23.598Z,11
2023-03-02T09:07:26.892Z,10
2023-03-02T09:08:30.156Z,10
2023-03-02T09:09:33.485Z,10
2023-03-02T09:10:36.748Z,10
2023-03-02T09:11:40.065Z,11
2023-03-02T09:12:42.356Z,11
2023-03-02T09:13:44.666Z,10
2023-03-02T09:14:46.989Z,10
2023-03-02T09:15:49.300Z,10
2023-03-02T09:16:52.597Z,10
2023-03-02T09:17:55.857Z,10
2023-03-02T09:18:59.162Z,9
2023-03-02T09:20:02.440Z,9
2023-03-02T09:21:05.757Z,9
2023-03-02T09:22:09.036Z,9
2023-03-02T09:23:12.343Z,10
2023-03-02T09:24:15.616Z,11
2023-03-02T09:25:18.926Z,9
2023-03-02T09:26:22.221Z,9
2023-03-02T09:27:25.510Z,10
2023-03-02T09:28:28.797Z,10
2023-03-02T09:29:31.110Z,10
2023-03-02T09:30:34.400Z,9
2023-03-02T09:31:37.680Z,9
2023-03-02T09:32:40.977Z,9
2023-03-02T09:33:44.250Z,9
2023-03-02T09:34:47.594Z,9
2023-03-02T09:35:50.863Z,9
2023-03-02T09:36:53.272Z,9
2023-03-02T09:37:55.480Z,9
2023-03-02T09:38:57.793Z,9
2023-03-02T09:40:00.085Z,9
2023-03-02T09:41:03.389Z,9
2023-03-02T09:42:06.665Z,9
2023-03-02T09:43:09.964Z,9
2023-03-02T09:44:13.269Z,9
2023-03-02T09:45:16.553Z,9
2023-03-02T09:46:19.869Z,9
2023-03-02T09:47:23.149Z,9
2023-03-02T09:48:26.436Z,9
2023-03-02T09:49:29.725Z,10
2023-03-02T09:50:33.044Z,7
2023-03-02T09:51:36.359Z,10
2023-03-02T09:52:39.728Z,10
2023-03-02T09:53:41.913Z,9
2023-03-02T09:54:45.214Z,9
2023-03-02T09:55:47.572Z,10
2023-03-02T09:56:50.898Z,10
2023-03-02T09:57:54.197Z,10
2023-03-02T09:58:57.450Z,9
2023-03-02T10:00:00.671Z,10
2023-03-02T10:01:02.994Z,9
2023-03-02T10:02:05.400Z,9
2023-03-02T10:03:07.706Z,9
2023-03-02T10:04:10.013Z,9
2023-03-02T10:05:13.414Z,9
2023-03-02T10:06:16.642Z,8
2023-03-02T10:07:19.876Z,9
2023-03-02T10:08:23.180Z,9
2023-03-02T10:09:26.471Z,9
2023-03-02T10:10:29.758Z,9
2023-03-02T10:11:33.040Z,9
2023-03-02T10:12:36.447Z,9
2023-03-02T10:13:39.645Z,9
2023-03-02T10:14:42.918Z,9
2023-03-02T10:15:46.222Z,8
2023-03-02T10:16:49.512Z,9
2023-03-02T10:17:51.826Z,9
2023-03-02T10:18:55.112Z,8
2023-03-02T10:19:58.386Z,8
2023-03-02T10:21:02.371Z,8
2023-03-02T10:22:05.650Z,8
2023-03-02T10:23:08.925Z,9
2023-03-02T10:24:12.231Z,8
2023-03-02T10:25:14.615Z,8
2023-03-02T10:26:16.923Z,8
2023-03-02T10:27:19.232Z,8
2023-03-02T10:28:21.467Z,9
2023-03-02T10:29:24.744Z,8
2023-03-02T10:30:28.038Z,8
2023-03-02T10:31:31.352Z,8
2023-03-02T10:32:34.678Z,8
2023-03-02T10:33:37.924Z,8
2023-03-02T10:34:41.224Z,8
2023-03-02T10:35:44.515Z,9
2023-03-02T10:36:47.886Z,8
2023-03-02T10:37:51.089Z,9
2023-03-02T10:38:54.444Z,9
2023-03-02T10:39:57.685Z,9
2023-03-02T10:41:00.979Z,9
2023-03-02T10:42:03.299Z,9
2023-03-02T10:43:06.551Z,9
2023-03-02T10:44:10.015Z,9
2023-03-02T10:45:13.159Z,9
2023-03-02T10:46:16.440Z,9
2023-03-02T10:47:19.747Z,9
2023-03-02T10:48:23.040Z,9
2023-03-02T10:49:25.356Z,9
2023-03-02T10:50:27.640Z,9
2023-03-02T10:51:30.925Z,9
2023-03-02T10:52:34.250Z,9
2023-03-02T10:53:37.534Z,9
2023-03-02T10:54:40.851Z,8
2023-03-02T10:55:44.112Z,8
2023-03-02T10:56:47.394Z,9
2023-03-02T10:57:50.692Z,9
2023-03-02T10:58:53.981Z,9
2023-03-02T10:59:57.273Z,9
2023-03-02T11:01:00.567Z,10
2023-03-02T11:02:03.864Z,9
2023-03-02T11:03:07.154Z,8
2023-03-02T11:04:09.455Z,9
2023-03-02T11:05:12.747Z,10
2023-03-02T11:06:16.041Z,9
2023-03-02T11:07:19.339Z,9
2023-03-02T11:08:22.634Z,9
2023-03-02T11:09:25.917Z,9
2023-03-02T11:10:29.276Z,8
2023-03-02T11:11:31.520Z,9
2023-03-02T11:12:33.841Z,9
2023-03-02T11:13:37.133Z,9
2023-03-02T11:14:40.453Z,9
2023-03-02T11:15:43.691Z,-62
2023-03-02T11:16:46.996Z,10
2023-03-02T11:17:50.296Z,10
2023-03-02T11:18:53.589Z,9
2023-03-02T11:19:56.910Z,8
2023-03-02T11:21:00.153Z,9
2023-03-02T11:22:03.460Z,9
2023-03-02T11:23:06.789Z,9
2023-03-02T11:24:10.059Z,8
2023-03-02T11:25:13.344Z,8
2023-03-02T11:26:15.647Z,9
2023-03-02T11:27:18.955Z,9
2023-03-02T11:28:22.263Z,9
2023-03-02T11:29:25.524Z,9
2023-03-02T11:30:28.824Z,9
2023-03-02T11:31:32.091Z,10
2023-03-02T11:32:35.409Z,10
2023-03-02T11:33:37.713Z,9
2023-03-02T11:34:40.017Z,9
2023-03-02T11:35:43.438Z,9
2023-03-02T11:36:46.889Z,9
2023-03-02T11:37:50.157Z,9
2023-03-02T11:38:53.432Z,9
2023-03-02T11:39:56.727Z,10
2023-03-02T11:41:00.045Z,10
2023-03-02T11:42:03.377Z,10
2023-03-02T11:43:06.652Z,10
2023-03-02T11:44:09.909Z,8
2023-03-02T11:45:13.196Z,9
2023-03-02T11:46:16.484Z,9
2023-03-02T11:47:19.786Z,9
2023-03-02T11:48:23.083Z,11
2023-03-02T11:49:26.410Z,11
2023-03-02T11:50:28.697Z,11
2023-03-02T11:51:32.046Z,10
2023-03-02T11:52:35.384Z,11
2023-03-02T11:53:38.706Z,11
2023-03-02T11:54:41.999Z,10
2023-03-02T11:55:45.129Z,12
2023-03-02T11:56:48.534Z,11
2023-03-02T11:57:50.781Z,11
2023-03-02T11:58:53.258Z,12
2023-03-02T11:59:55.518Z,12
2023-03-02T12:00:57.802Z,11
2023-03-02T12:02:00.185Z,10
2023-03-02T12:03:03.481Z,11
2023-03-02T12:04:06.159Z,10
2023-03-02T12:05:09.465Z,9
2023-03-02T12:06:12.566Z,9
2023-03-02T12:07:15.988Z,10
2023-03-02T12:08:19.146Z,10
2023-03-02T12:09:22.491Z,10
2023-03-02T12:10:25.877Z,10
2023-03-02T12:11:29.225Z,10
2023-03-02T12:12:32.465Z,10
2023-03-02T12:13:35.717Z,10
2023-03-02T12:14:38.897Z,14
2023-03-02T12:15:42.430Z,13
2023-03-02T12:16:45.475Z,13
2023-03-02T12:17:47.787Z,12
2023-03-02T12:18:51.087Z,13
2023-03-02T12:19:54.429Z,12
2023-03-02T12:20:57.830Z,12
2023-03-02T12:22:01.057Z,12
2023-03-02T12:23:04.261Z,13
2023-03-02T12:24:06.827Z,13
2023-03-02T12:25:08.876Z,13
2023-03-02T12:26:11.383Z,13
2023-03-02T12:27:13.510Z,13
2023-03-02T12:28:16.917Z,13
2023-03-02T12:29:20.204Z,13
2023-03-02T12:30:23.364Z,13
2023-03-02T12:31:26.731Z,14
2023-03-02T12:32:30.052Z,14
2023-03-02T12:33:33.251Z,14
2023-03-02T12:34:36.704Z,14
2023-03-02T12:35:39.997Z,14
2023-03-02T12:36:43.367Z,14
2023-03-02T12:37:46.607Z,15
2023-03-02T12:38:49.710Z,14
2023-03-02T12:39:53.196Z,14
2023-03-02T12:40:55.502Z,14
2023-03-02T12:41:58.641Z,14
2023-03-02T12:43:02.110Z,14
2023-03-02T12:44:05.184Z,14
2023-03-02T12:45:08.621Z,14
2023-03-02T12:46:11.931Z,14
2023-03-02T12:47:15.148Z,14
2023-03-02T12:48:17.715Z,14
2023-03-02T12:49:19.680Z,15
2023-03-02T12:50:22.985Z,14
2023-03-02T12:51:26.394Z,14
2023-03-02T12:52:29.634Z,15
2023-03-02T12:53:33.009Z,14
2023-03-02T12:54:36.222Z,14
2023-03-02T12:55:39.587Z,14
2023-03-02T12:56:42.941Z,14
2023-03-02T12:57:46.213Z,15
2023-03-02T12:58:49.304Z,15
2023-03-02T12:59:52.663Z,15
2023-03-02T13:00:55.912Z,14
2023-03-02T13:01:59.297Z,16
2023-03-02T13:03:01.494Z,14
2023-03-02T13:04:04.900Z,15
2023-03-02T13:05:08.059Z,15
2023-03-02T13:06:11.354Z,15
2023-03-02T13:07:14.656Z,15
2023-03-02T13:08:17.942Z,14
2023-03-02T13:09:21.246Z,14
2023-03-02T13:10:23.589Z,15
2023-03-02T13:11:25.858Z,14
2023-03-02T13:12:28.183Z,14
2023-03-02T13:13:30.486Z,13
2023-03-02T13:14:33.886Z,12
2023-03-02T13:15:37.294Z,12
2023-03-02T13:16:39.469Z,11
2023-03-02T13:17:41.898Z,11
2023-03-02T13:18:45.130Z,10
2023-03-02T13:19:48.431Z,10
2023-03-02T13:20:51.568Z,10
2023-03-02T13:21:54.930Z,10
2023-03-02T13:22:58.152Z,9
2023-03-02T13:24:01.502Z,9
2023-03-02T13:25:04.721Z,9
2023-03-02T13:26:08.014Z,9
2023-03-02T13:27:10.332Z,8
2023-03-02T13:28:13.645Z,9
2023-03-02T13:29:16.921Z,9
2023-03-02T13:30:20.201Z,9
2023-03-02T13:31:23.503Z,9
2023-03-02T13:32:26.805Z,9
2023-03-02T13:33:30.139Z,9
2023-03-02T13:34:33.372Z,8
2023-03-02T13:35:36.661Z,8
2023-03-02T13:36:39.968Z,9
2023-03-02T13:37:43.391Z,8
2023-03-02T13:38:45.567Z,9
2023-03-02T13:39:47.883Z,9
2023-03-02T13:40:50.193Z,9
2023-03-02T13:41:52.566Z,8
2023-03-02T13:42:55.806Z,9
2023-03-02T13:43:59.148Z,9
2023-03-02T13:45:02.495Z,9
2023-03-02T13:46:05.792Z,9
2023-03-02T13:47:09.744Z,9
2023-03-02T13:48:12.954Z,9
2023-03-02T13:49:16.401Z,9
2023-03-02T13:50:19.523Z,8
2023-03-02T13:51:22.870Z,8
2023-03-02T13:52:26.132Z,8
2023-03-02T13:53:29.440Z,8
2023-03-02T13:54:32.687Z,9
2023-03-02T13:55:35.035Z,9
2023-03-02T13:56:38.341Z,9
2023-03-02T13:57:41.593Z,8
2023-03-02T13:58:44.867Z,9
2023-03-02T13:59:48.158Z,8
2023-03-02T14:00:51.521Z,9
2023-03-02T14:01:54.747Z,-0.01
2023-03-02T14:02:57.089Z,8
2023-03-02T14:03:59.384Z,8
2023-03-02T14:05:01.867Z,9
2023-03-02T14:06:04.208Z,9
2023-03-02T14:07:07.401Z,9
2023-03-02T14:08:10.705Z,8
2023-03-02T14:09:13.919Z,9
2023-03-02T14:10:17.145Z,9
2023-03-02T14:11:20.530Z,8
2023-03-02T14:12:23.868Z,9
2023-03-02T14:13:27.118Z,9
2023-03-02T14:14:30.433Z,8
2023-03-02T14:15:33.680Z,8
2023-03-02T14:16:37.035Z,9
2023-03-02T14:17:40.396Z,8
2023-03-02T14:18:43.583Z,9
2023-03-02T14:19:45.863Z,8
2023-03-02T14:20:49.297Z,8
2023-03-02T14:21:52.557Z,8
2023-03-02T14:22:55.782Z,8
2023-03-02T14:23:58.975Z,9
2023-03-02T14:25:02.280Z,8
2023-03-02T14:26:05.561Z,8
2023-03-02T14:27:07.874Z,9
2023-03-02T14:28:10.211Z,9
2023-03-02T14:29:12.574Z,9
2023-03-02T14:30:14.841Z,9
2023-03-02T14:31:18.086Z,9
2023-03-02T14:32:21.465Z,9
2023-03-02T14:33:24.668Z,8
2023-03-02T14:34:27.974Z,8
2023-03-02T14:35:31.316Z,9
2023-03-02T14:36:34.632Z,9
2023-03-02T14:37:38.031Z,9
2023-03-02T14:38:41.194Z,9
2023-03-02T14:39:44.493Z,9
2023-03-02T14:40:47.728Z,9
2023-03-02T14:41:51.005Z,9
2023-03-02T14:42:54.308Z,9
2023-03-02T14:43:56.606Z,9
2023-03-02T14:44:59.920Z,9
2023-03-02T14:46:03.185Z,10
2023-03-02T14:47:07.050Z,9
2023-03-02T14:48:10.304Z,9
2023-03-02T14:49:13.591Z,9
2023-03-02T14:50:16.883Z,9
2023-03-02T14:51:19.198Z,9
2023-03-02T14:52:21.497Z,8
2023-03-02T14:53:23.948Z,8
2023-03-02T14:54:26.264Z,8
2023-03-02T14:55:29.645Z,8
2023-03-02T14:56:32.768Z,1
2023-03-02T14:57:36.064Z,1
2023-03-02T14:58:39.288Z,1
2023-03-02T14:59:42.571Z,1
2023-03-02T15:00:45.875Z,1
2023-03-02T15:01:49.167Z,1
2023-03-02T15:02:52.461Z,1
2023-03-02T15:03:55.927Z,1
2023-03-02T15:04:59.193Z,1
2023-03-02T15:06:02.538Z,0
2023-03-02T15:07:05.757Z,0
2023-03-02T15:08:07.961Z,0
2023-03-02T15:09:11.236Z,0
2023-03-02T15:10:14.546Z,0
2023-03-02T15:11:17.802Z,0
2023-03-02T15:12:21.090Z,0
2023-03-02T15:13:24.395Z,0
2023-03-02T15:14:27.681Z,0
2023-03-02T15:15:30.068Z,0
2023-03-02T15:16:32.306Z,0
2023-03-02T15:17:34.612Z,0
2023-03-02T15:18:36.925Z,0
2023-03-02T15:19:40.210Z,0
2023-03-02T15:20:43.524Z,0
2023-03-02T15:21:46.802Z,0
2023-03-02T15:22:50.100Z,-64
2023-03-02T15:23:53.430Z,0
2023-03-02T15:24:56.674Z,0
2023-03-02T15:25:59.973Z,0
2023-03-02T15:27:03.355Z,0